Time;durP1;ratioP1;P1;durP2;ratioP2;P2;SDS_P1;SDS_P2;PMS_P1;PMS_P2;Temp;Humidity;BMP_temperature;BMP_pressure;BME280_temperature;BME280_humidity;BME280_pressure;Samples;Min_cycle;Max_cycle;Signal;HPM_P1;HPM_P2
2023/08/13 00:00:53;;;;;;;3.43;2.70;;;;;;;;;;5086280;28;20195;-84
2023/08/13 00:03:19;;;;;;;4.17;2.37;;;;;;;;;;5083741;28;20185;-84
2023/08/13 00:05:45;;;;;;;2.50;2.30;;;;;;;;;;5075645;28;20184;-84
2023/08/13 00:08:11;;;;;;;2.47;2.23;;;;;;;;;;5085194;28;20217;-83
2023/08/13 00:10:37;;;;;;;5.83;2.90;;;;;;;;;;5083561;28;20198;-83
2023/08/13 00:13:02;;;;;;;4.03;2.67;;;;;;;;;;5079008;28;20202;-84
2023/08/13 00:15:28;;;;;;;3.13;2.80;;;;;;;;;;5085339;28;20190;-83
2023/08/13 00:17:53;;;;;;;3.30;2.67;;;;;;;;;;5086652;28;20236;-84
2023/08/13 00:20:18;;;;;;;2.93;2.53;;;;;;;;;;5084217;28;20176;-84
2023/08/13 00:22:43;;;;;;;2.97;2.67;;;;;;;;;;5084681;28;20232;-84
2023/08/13 00:25:08;;;;;;;4.03;2.77;;;;;;;;;;5080665;28;20175;-84
2023/08/13 00:27:34;;;;;;;3.53;2.73;;;;;;;;;;5080100;28;20182;-84
2023/08/13 00:29:59;;;;;;;3.90;2.73;;;;;;;;;;5080321;28;20184;-84
2023/08/13 00:32:24;;;;;;;3.63;2.37;;;;;;;;;;5081009;28;20189;-84
2023/08/13 00:34:49;;;;;;;4.60;2.60;;;;;;;;;;5084033;28;20217;-84
2023/08/13 00:37:16;;;;;;;3.33;2.97;;;;;;;;;;5083569;28;20423;-84
2023/08/13 00:39:41;;;;;;;3.13;2.40;;;;;;;;;;5083531;28;20187;-84
2023/08/13 00:42:07;;;;;;;4.83;2.87;;;;;;;;;;5085615;28;20190;-84
2023/08/13 00:44:32;;;;;;;3.73;2.80;;;;;;;;;;5082162;28;20215;-83
2023/08/13 00:46:57;;;;;;;5.53;3.07;;;;;;;;;;5074354;28;20294;-84
2023/08/13 00:49:23;;;;;;;3.20;2.80;;;;;;;;;;5069322;28;20199;-84
2023/08/13 00:51:49;;;;;;;3.03;2.83;;;;;;;;;;5083738;28;20197;-84
2023/08/13 00:54:14;;;;;;;2.90;2.60;;;;;;;;;;5081480;28;20180;-84
2023/08/13 00:56:40;;;;;;;5.37;2.67;;;;;;;;;;5071767;28;20234;-84
2023/08/13 00:59:06;;;;;;;3.73;3.17;;;;;;;;;;5073031;28;20183;-84
2023/08/13 01:01:31;;;;;;;3.90;2.70;;;;;;;;;;5070110;28;20191;-84
2023/08/13 01:03:56;;;;;;;3.17;2.87;;;;;;;;;;5070574;28;20177;-83
2023/08/13 01:06:37;;;;;;;2.60;2.40;;;;;;;;;;5066306;28;20272;-84
2023/08/13 01:09:02;;;;;;;3.00;2.70;;;;;;;;;;5068634;28;20181;-84
2023/08/13 01:11:50;;;;;;;4.63;3.30;;;;;;;;;;5070141;28;20243;-84
2023/08/13 01:14:16;;;;;;;3.57;2.73;;;;;;;;;;5088392;28;20183;-84
2023/08/13 01:16:43;;;;;;;3.20;2.60;;;;;;;;;;5072245;28;20183;-84
2023/08/13 01:19:11;;;;;;;2.77;2.57;;;;;;;;;;5067034;28;20202;-84
2023/08/13 01:21:36;;;;;;;3.07;2.70;;;;;;;;;;5084623;28;20194;-84
2023/08/13 01:24:01;;;;;;;2.87;2.67;;;;;;;;;;5071502;28;20176;-84
2023/08/13 01:26:28;;;;;;;4.20;2.87;;;;;;;;;;5067561;28;20188;-84
2023/08/13 01:29:06;;;;;;;4.20;3.00;;;;;;;;;;5073833;28;20188;-84
2023/08/13 01:31:35;;;;;;;3.60;2.50;;;;;;;;;;5066966;28;20179;-84
2023/08/13 01:34:01;;;;;;;4.03;2.90;;;;;;;;;;5064284;28;20184;-84
2023/08/13 01:36:26;;;;;;;3.27;2.87;;;;;;;;;;5065229;28;20233;-84
2023/08/13 01:38:52;;;;;;;3.13;2.70;;;;;;;;;;5066403;28;20181;-84
2023/08/13 01:41:18;;;;;;;3.30;3.00;;;;;;;;;;5068378;28;20271;-84
2023/08/13 01:43:43;;;;;;;4.43;3.50;;;;;;;;;;5066944;28;20259;-84
2023/08/13 01:46:08;;;;;;;3.57;3.27;;;;;;;;;;5070501;28;20178;-84
2023/08/13 01:48:33;;;;;;;4.73;3.40;;;;;;;;;;5063756;28;20258;-84
2023/08/13 01:50:59;;;;;;;4.10;3.33;;;;;;;;;;5064468;28;20205;-84
2023/08/13 01:53:24;;;;;;;3.80;2.60;;;;;;;;;;5066373;28;20186;-84
2023/08/13 01:55:50;;;;;;;3.20;2.80;;;;;;;;;;5070759;28;20212;-84
2023/08/13 01:58:15;;;;;;;3.53;3.17;;;;;;;;;;5069280;28;20204;-84
2023/08/13 02:00:40;;;;;;;4.40;2.90;;;;;;;;;;5072300;28;20170;-84
2023/08/13 02:03:05;;;;;;;6.93;3.73;;;;;;;;;;5078434;28;20181;-84
2023/08/13 02:05:31;;;;;;;3.30;2.67;;;;;;;;;;5064796;28;20184;-84
2023/08/13 02:07:56;;;;;;;3.93;2.83;;;;;;;;;;5064066;28;20188;-84
2023/08/13 02:10:21;;;;;;;4.23;3.27;;;;;;;;;;5070883;28;20272;-84
2023/08/13 02:12:46;;;;;;;2.87;2.67;;;;;;;;;;5066796;28;20189;-84
2023/08/13 02:15:12;;;;;;;3.43;2.70;;;;;;;;;;5068021;28;20205;-84
2023/08/13 02:17:37;;;;;;;3.33;3.03;;;;;;;;;;5083864;28;20214;-84
2023/08/13 02:20:02;;;;;;;6.80;3.43;;;;;;;;;;5070857;28;20183;-84
2023/08/13 02:22:28;;;;;;;4.53;2.77;;;;;;;;;;5083783;28;20204;-84
2023/08/13 02:24:53;;;;;;;4.23;3.43;;;;;;;;;;5068914;28;20197;-84
2023/08/13 02:27:18;;;;;;;3.57;3.03;;;;;;;;;;5064322;28;20183;-84
2023/08/13 02:29:43;;;;;;;5.50;3.10;;;;;;;;;;5070275;28;20189;-84
2023/08/13 02:32:09;;;;;;;4.13;3.30;;;;;;;;;;5079677;28;20269;-84
2023/08/13 02:34:41;;;;;;;3.90;3.30;;;;;;;;;;5063131;28;20345;-84
2023/08/13 02:37:06;;;;;;;4.63;3.00;;;;;;;;;;5066140;28;20187;-84
2023/08/13 02:39:32;;;;;;;4.37;3.00;;;;;;;;;;5066659;28;20191;-84
2023/08/13 02:41:57;;;;;;;3.37;3.07;;;;;;;;;;5066620;28;20203;-84
2023/08/13 02:44:24;;;;;;;5.07;3.13;;;;;;;;;;5066972;28;20220;-84
2023/08/13 02:46:49;;;;;;;4.60;2.90;;;;;;;;;;5070302;28;20181;-84
2023/08/13 02:49:14;;;;;;;3.30;2.63;;;;;;;;;;5065816;28;20222;-84
2023/08/13 02:51:39;;;;;;;4.30;2.73;;;;;;;;;;5067674;28;20287;-84
2023/08/13 02:54:05;;;;;;;3.30;2.97;;;;;;;;;;5069093;28;20271;-84
2023/08/13 02:56:33;;;;;;;5.63;3.20;;;;;;;;;;5068553;28;20236;-84
2023/08/13 02:58:58;;;;;;;3.63;3.33;;;;;;;;;;5069073;28;20195;-84
2023/08/13 03:01:23;;;;;;;3.63;3.10;;;;;;;;;;5067624;28;20192;-84
2023/08/13 03:03:49;;;;;;;2.87;2.47;;;;;;;;;;5058103;28;20188;-84
2023/08/13 03:06:14;;;;;;;4.10;3.23;;;;;;;;;;5068810;28;20201;-84
2023/08/13 03:08:39;;;;;;;3.67;3.37;;;;;;;;;;5065675;28;20306;-84
2023/08/13 03:11:05;;;;;;;4.40;3.50;;;;;;;;;;5069357;28;20196;-84
2023/08/13 03:13:31;;;;;;;4.40;3.67;;;;;;;;;;5067103;28;20226;-84
2023/08/13 03:15:56;;;;;;;8.60;3.67;;;;;;;;;;5066604;28;20227;-84
2023/08/13 03:18:21;;;;;;;3.87;3.40;;;;;;;;;;5067026;28;20167;-84
2023/08/13 03:20:47;;;;;;;5.80;3.40;;;;;;;;;;5067314;28;20187;-84
2023/08/13 03:23:12;;;;;;;4.47;3.37;;;;;;;;;;5068820;28;20180;-84
2023/08/13 03:25:37;;;;;;;4.57;3.27;;;;;;;;;;5065327;28;20178;-84
2023/08/13 03:28:03;;;;;;;4.77;3.50;;;;;;;;;;5057646;28;20212;-84
2023/08/13 03:30:28;;;;;;;4.73;3.30;;;;;;;;;;5067550;28;20208;-84
2023/08/13 03:32:53;;;;;;;3.40;3.10;;;;;;;;;;5065941;28;20180;-84
2023/08/13 03:35:18;;;;;;;3.60;3.20;;;;;;;;;;5065273;28;20255;-84
2023/08/13 03:37:44;;;;;;;3.13;2.90;;;;;;;;;;5068809;28;20213;-84
2023/08/13 03:40:09;;;;;;;3.77;3.10;;;;;;;;;;5067654;28;20198;-84
2023/08/13 03:42:34;;;;;;;3.53;3.20;;;;;;;;;;5065811;28;20176;-84
2023/08/13 03:44:59;;;;;;;3.10;2.90;;;;;;;;;;5062397;28;20218;-84
2023/08/13 03:47:25;;;;;;;3.77;3.30;;;;;;;;;;5067695;28;20176;-84
2023/08/13 03:49:50;;;;;;;3.80;2.73;;;;;;;;;;5067004;28;20178;-84
2023/08/13 03:52:15;;;;;;;8.00;3.13;;;;;;;;;;5067999;28;20176;-84
2023/08/13 03:54:40;;;;;;;3.53;2.40;;;;;;;;;;5064345;28;20251;-85
2023/08/13 03:57:06;;;;;;;3.17;2.87;;;;;;;;;;5069454;28;20221;-84
2023/08/13 03:59:31;;;;;;;3.00;2.70;;;;;;;;;;5070031;28;20226;-84
2023/08/13 04:01:58;;;;;;;4.60;3.17;;;;;;;;;;5068077;28;20184;-84
2023/08/13 04:04:23;;;;;;;4.73;2.87;;;;;;;;;;5068174;28;20192;-84
2023/08/13 04:06:49;;;;;;;3.80;2.87;;;;;;;;;;5068689;28;20174;-84
2023/08/13 04:09:14;;;;;;;3.37;2.70;;;;;;;;;;5068226;28;20185;-84
2023/08/13 04:11:39;;;;;;;2.97;2.67;;;;;;;;;;5066628;28;20209;-84
2023/08/13 04:14:04;;;;;;;4.70;3.07;;;;;;;;;;5084677;28;20182;-84
2023/08/13 04:16:30;;;;;;;3.27;2.80;;;;;;;;;;5068123;28;20206;-84
2023/08/13 04:18:55;;;;;;;4.00;3.23;;;;;;;;;;5080727;28;20205;-84
2023/08/13 04:21:20;;;;;;;2.93;2.73;;;;;;;;;;5070286;28;20178;-84
2023/08/13 04:23:45;;;;;;;2.83;2.63;;;;;;;;;;5081811;28;20178;-84
2023/08/13 04:26:10;;;;;;;5.63;2.70;;;;;;;;;;5071720;28;20191;-84
2023/08/13 04:28:36;;;;;;;2.83;2.63;;;;;;;;;;5070425;28;20184;-84
2023/08/13 04:31:01;;;;;;;3.90;3.23;;;;;;;;;;5067937;28;20223;-83
2023/08/13 04:33:26;;;;;;;3.53;3.23;;;;;;;;;;5063133;28;20211;-84
2023/08/13 04:35:52;;;;;;;7.10;3.40;;;;;;;;;;5067050;28;20241;-84
2023/08/13 04:38:17;;;;;;;3.00;2.47;;;;;;;;;;5070990;28;20181;-84
2023/08/13 04:40:45;;;;;;;3.50;3.20;;;;;;;;;;5069308;28;20181;-84
2023/08/13 04:43:10;;;;;;;4.37;3.33;;;;;;;;;;5069470;28;20184;-84
2023/08/13 04:45:36;;;;;;;2.90;2.60;;;;;;;;;;5071967;28;20182;-84
2023/08/13 04:48:01;;;;;;;3.33;2.73;;;;;;;;;;5070860;28;20174;-84
2023/08/13 04:50:27;;;;;;;3.77;3.03;;;;;;;;;;5065940;28;20208;-84
2023/08/13 04:52:52;;;;;;;4.47;3.17;;;;;;;;;;5070757;28;20209;-84
2023/08/13 04:55:17;;;;;;;3.23;3.00;;;;;;;;;;5067463;28;20259;-84
2023/08/13 04:57:42;;;;;;;3.43;3.13;;;;;;;;;;5066055;28;20180;-84
2023/08/13 05:00:09;;;;;;;3.23;2.83;;;;;;;;;;5064957;28;20185;-84
2023/08/13 05:02:34;;;;;;;3.27;3.00;;;;;;;;;;5069602;28;20185;-84
2023/08/13 05:05:00;;;;;;;3.60;2.80;;;;;;;;;;5068488;28;20186;-84
2023/08/13 05:07:25;;;;;;;4.17;2.50;;;;;;;;;;5068933;28;20191;-84
2023/08/13 05:09:50;;;;;;;3.13;2.70;;;;;;;;;;5072764;28;20178;-84
2023/08/13 05:12:15;;;;;;;2.80;2.60;;;;;;;;;;5071659;28;20197;-85
2023/08/13 05:14:41;;;;;;;2.93;2.40;;;;;;;;;;5069465;28;20203;-85
2023/08/13 05:17:35;;;;;;;2.97;2.73;;;;;;;;;;5070831;28;20180;-86
2023/08/13 05:20:00;;;;;;;4.53;2.53;;;;;;;;;;5061915;28;20202;-85
2023/08/13 05:22:26;;;;;;;3.73;2.73;;;;;;;;;;5082435;28;20185;-85
2023/08/13 05:24:52;;;;;;;3.33;3.03;;;;;;;;;;5067968;28;20187;-86
2023/08/13 05:27:17;;;;;;;3.70;3.27;;;;;;;;;;5068524;28;20188;-85
2023/08/13 05:29:42;;;;;;;4.07;3.27;;;;;;;;;;5066336;28;20214;-85
2023/08/13 05:32:08;;;;;;;5.70;3.43;;;;;;;;;;5063572;28;20186;-86
2023/08/13 05:34:33;;;;;;;3.30;3.00;;;;;;;;;;5066430;28;20205;-85
2023/08/13 05:36:58;;;;;;;4.63;2.97;;;;;;;;;;5068128;28;20196;-86
2023/08/13 05:39:23;;;;;;;3.23;2.93;;;;;;;;;;5066963;28;20182;-85
2023/08/13 05:41:49;;;;;;;3.90;2.83;;;;;;;;;;5067931;28;20199;-85
2023/08/13 05:44:14;;;;;;;3.73;2.60;;;;;;;;;;5063508;28;20186;-85
2023/08/13 05:46:39;;;;;;;4.13;3.00;;;;;;;;;;5078276;28;20177;-86
2023/08/13 05:49:04;;;;;;;3.13;2.93;;;;;;;;;;5063074;28;20244;-86
2023/08/13 05:51:29;;;;;;;5.80;3.10;;;;;;;;;;5082064;28;20231;-86
2023/08/13 05:53:55;;;;;;;2.70;2.37;;;;;;;;;;5069713;28;20185;-86
2023/08/13 05:56:20;;;;;;;3.17;2.83;;;;;;;;;;5064578;28;20218;-86
2023/08/13 05:58:45;;;;;;;3.23;2.77;;;;;;;;;;5064440;28;20184;-85
2023/08/13 06:01:11;;;;;;;3.73;2.90;;;;;;;;;;5067147;28;20178;-85
2023/08/13 06:03:36;;;;;;;3.33;3.07;;;;;;;;;;5067693;28;20201;-86
2023/08/13 06:06:01;;;;;;;7.23;3.63;;;;;;;;;;5071378;28;20214;-86
2023/08/13 06:08:26;;;;;;;4.80;3.20;;;;;;;;;;5069105;28;20261;-85
2023/08/13 06:10:52;;;;;;;3.63;3.23;;;;;;;;;;5072126;28;20223;-85
2023/08/13 06:13:17;;;;;;;3.97;3.60;;;;;;;;;;5071292;28;20246;-86
2023/08/13 06:15:42;;;;;;;3.50;3.20;;;;;;;;;;5070291;28;20214;-86
2023/08/13 06:18:07;;;;;;;3.70;3.43;;;;;;;;;;5070186;28;20210;-86
2023/08/13 06:20:33;;;;;;;3.43;3.03;;;;;;;;;;5088528;28;20255;-86
2023/08/13 06:22:58;;;;;;;3.70;3.33;;;;;;;;;;5081179;28;20186;-85
2023/08/13 06:25:23;;;;;;;4.27;3.70;;;;;;;;;;5084655;28;20218;-85
2023/08/13 06:27:48;;;;;;;4.07;3.77;;;;;;;;;;5064642;28;20208;-85
2023/08/13 06:30:14;;;;;;;5.33;3.77;;;;;;;;;;5069581;28;20168;-85
2023/08/13 06:32:39;;;;;;;4.03;3.37;;;;;;;;;;5067842;28;20181;-85
2023/08/13 06:35:04;;;;;;;3.83;3.53;;;;;;;;;;5071325;28;20226;-85
2023/08/13 06:37:29;;;;;;;6.00;4.20;;;;;;;;;;5073226;28;20180;-85
2023/08/13 06:39:55;;;;;;;4.23;3.83;;;;;;;;;;5065488;28;20201;-86
2023/08/13 06:42:20;;;;;;;3.77;3.37;;;;;;;;;;5064438;28;20176;-85
2023/08/13 06:44:46;;;;;;;6.20;3.97;;;;;;;;;;5067253;28;20182;-85
2023/08/13 06:47:12;;;;;;;3.90;3.20;;;;;;;;;;5067207;28;20193;-85
2023/08/13 06:49:38;;;;;;;4.47;3.60;;;;;;;;;;5066991;28;20199;-85
2023/08/13 06:52:03;;;;;;;4.73;3.50;;;;;;;;;;5068829;28;20198;-85
2023/08/13 06:54:28;;;;;;;3.90;3.60;;;;;;;;;;5061377;28;20182;-86
2023/08/13 06:56:54;;;;;;;4.43;3.00;;;;;;;;;;5069215;28;20171;-85
2023/08/13 06:59:20;;;;;;;3.03;2.83;;;;;;;;;;5069272;28;20182;-85
2023/08/13 07:01:45;;;;;;;3.97;3.10;;;;;;;;;;5062573;28;20176;-85
2023/08/13 07:04:10;;;;;;;3.03;2.83;;;;;;;;;;5068117;28;20221;-85
2023/08/13 07:06:35;;;;;;;3.80;3.50;;;;;;;;;;5075510;28;20183;-85
2023/08/13 07:09:03;;;;;;;3.23;2.70;;;;;;;;;;5067231;28;20178;-85
2023/08/13 07:11:28;;;;;;;4.37;2.80;;;;;;;;;;5081487;28;20185;-86
2023/08/13 07:13:55;;;;;;;6.60;6.00;;;;;;;;;;5057388;28;20180;-85
2023/08/13 07:16:20;;;;;;;4.43;3.50;;;;;;;;;;5080520;28;20206;-85
2023/08/13 07:18:46;;;;;;;3.43;3.17;;;;;;;;;;5062571;28;20185;-85
2023/08/13 07:21:11;;;;;;;4.83;4.00;;;;;;;;;;5068088;28;20183;-85
2023/08/13 07:23:36;;;;;;;3.67;3.37;;;;;;;;;;5067406;28;20188;-85
2023/08/13 07:26:02;;;;;;;3.57;3.27;;;;;;;;;;5066860;28;20193;-85
2023/08/13 07:28:27;;;;;;;8.97;4.03;;;;;;;;;;5067442;28;20186;-85
2023/08/13 07:30:52;;;;;;;3.83;3.40;;;;;;;;;;5058975;28;20178;-85
2023/08/13 07:33:18;;;;;;;3.80;3.40;;;;;;;;;;5067352;28;20187;-85
2023/08/13 07:35:43;;;;;;;4.27;2.87;;;;;;;;;;5065833;28;20235;-85
2023/08/13 07:38:08;;;;;;;4.87;3.47;;;;;;;;;;5081414;28;20266;-84
2023/08/13 07:40:34;;;;;;;4.73;4.07;;;;;;;;;;5065798;28;20208;-85
2023/08/13 07:43:00;;;;;;;4.27;3.67;;;;;;;;;;5068362;28;20190;-85
2023/08/13 07:45:25;;;;;;;4.97;3.43;;;;;;;;;;5069238;28;20179;-85
2023/08/13 07:47:50;;;;;;;4.23;2.90;;;;;;;;;;5067699;28;20183;-85
2023/08/13 07:50:15;;;;;;;3.57;3.13;;;;;;;;;;5065812;28;20222;-85
2023/08/13 07:52:42;;;;;;;4.10;3.20;;;;;;;;;;5067963;28;20182;-85
2023/08/13 07:55:07;;;;;;;3.70;3.40;;;;;;;;;;5062865;28;20497;-85
2023/08/13 07:57:33;;;;;;;3.77;3.40;;;;;;;;;;5069470;28;20178;-86
2023/08/13 07:59:58;;;;;;;2.90;2.70;;;;;;;;;;5071488;28;20225;-86
2023/08/13 08:02:24;;;;;;;4.93;2.70;;;;;;;;;;5065714;28;20188;-86
2023/08/13 08:04:49;;;;;;;2.80;2.50;;;;;;;;;;5071474;28;20271;-86
2023/08/13 08:07:14;;;;;;;2.90;2.63;;;;;;;;;;5063744;28;20187;-86
2023/08/13 08:09:39;;;;;;;2.57;2.27;;;;;;;;;;5071193;28;20180;-86
2023/08/13 08:12:05;;;;;;;2.53;2.33;;;;;;;;;;5073379;28;20209;-86
2023/08/13 08:14:30;;;;;;;2.53;2.33;;;;;;;;;;5071603;28;20250;-86
2023/08/13 08:17:00;;;;;;;3.33;2.50;;;;;;;;;;5066678;28;20192;-86
2023/08/13 08:19:25;;;;;;;3.47;2.83;;;;;;;;;;5074407;28;20185;-86
2023/08/13 08:21:50;;;;;;;4.00;3.17;;;;;;;;;;5067811;28;20200;-86
2023/08/13 08:24:15;;;;;;;5.87;3.90;;;;;;;;;;5069803;28;20176;-86
2023/08/13 08:26:41;;;;;;;2.80;2.23;;;;;;;;;;5074219;28;20171;-85
2023/08/13 08:29:06;;;;;;;3.57;2.40;;;;;;;;;;5068409;28;20186;-86
2023/08/13 08:31:31;;;;;;;4.50;3.43;;;;;;;;;;5073190;28;20248;-86
2023/08/13 08:33:56;;;;;;;2.63;2.20;;;;;;;;;;5068187;28;20185;-86
2023/08/13 08:36:21;;;;;;;3.73;3.30;;;;;;;;;;5063195;28;20232;-86
2023/08/13 08:38:47;;;;;;;3.57;3.27;;;;;;;;;;5064808;28;20185;-87
2023/08/13 08:41:13;;;;;;;4.27;2.53;;;;;;;;;;5068461;28;20170;-85
2023/08/13 08:43:39;;;;;;;5.63;3.00;;;;;;;;;;5069255;28;20184;-83
2023/08/13 08:46:06;;;;;;;3.70;2.77;;;;;;;;;;5065640;28;20183;-84
2023/08/13 08:48:32;;;;;;;2.63;2.43;;;;;;;;;;5068542;28;20188;-84
2023/08/13 08:50:57;;;;;;;2.63;2.43;;;;;;;;;;5070486;28;20200;-84
2023/08/13 08:53:24;;;;;;;3.60;2.80;;;;;;;;;;5069878;28;20185;-84
2023/08/13 08:55:49;;;;;;;3.77;2.67;;;;;;;;;;5067254;28;20215;-84
2023/08/13 08:58:14;;;;;;;2.43;2.23;;;;;;;;;;5064808;28;20171;-84
2023/08/13 09:00:39;;;;;;;4.07;2.87;;;;;;;;;;5069766;28;20187;-84
2023/08/13 09:03:06;;;;;;;3.13;2.70;;;;;;;;;;5064677;28;20271;-84
2023/08/13 09:05:36;;;;;;;3.13;2.83;;;;;;;;;;5069564;28;20186;-85
2023/08/13 09:08:04;;;;;;;3.60;2.93;;;;;;;;;;5079468;28;20184;-85
2023/08/13 09:10:31;;;;;;;2.93;2.60;;;;;;;;;;5070268;28;20209;-85
2023/08/13 09:12:57;;;;;;;5.20;3.03;;;;;;;;;;5068540;28;20268;-86
2023/08/13 09:15:22;;;;;;;2.80;2.60;;;;;;;;;;5066152;28;20220;-86
2023/08/13 09:17:47;;;;;;;4.40;2.70;;;;;;;;;;5065916;28;20185;-87
2023/08/13 09:20:16;;;;;;;3.23;2.80;;;;;;;;;;5071510;28;20192;-88
2023/08/13 09:22:48;;;;;;;3.00;2.80;;;;;;;;;;5069214;28;20188;-88
2023/08/13 09:25:17;;;;;;;3.40;3.10;;;;;;;;;;5086633;28;20240;-88
2023/08/13 09:27:42;;;;;;;5.80;3.53;;;;;;;;;;5067170;28;20258;-88
2023/08/13 09:30:12;;;;;;;4.87;3.43;;;;;;;;;;5069517;28;20185;-88
2023/08/13 09:32:37;;;;;;;2.80;2.60;;;;;;;;;;5065938;28;20181;-87
2023/08/13 09:35:03;;;;;;;3.20;2.63;;;;;;;;;;5067427;28;20268;-87
2023/08/13 09:37:29;;;;;;;3.50;3.17;;;;;;;;;;5084983;28;20178;-86
2023/08/13 09:39:55;;;;;;;4.33;2.53;;;;;;;;;;5083443;28;20179;-87
2023/08/13 09:42:22;;;;;;;3.50;2.60;;;;;;;;;;5068629;28;20198;-86
2023/08/13 09:44:48;;;;;;;4.70;2.63;;;;;;;;;;5067262;28;20185;-87
2023/08/13 09:47:17;;;;;;;3.93;2.60;;;;;;;;;;5068145;28;20247;-87
2023/08/13 09:49:43;;;;;;;3.30;2.65;;;;;;;;;;5064609;28;20174;-87
2023/08/13 09:52:11;;;;;;;3.33;2.97;;;;;;;;;;5067848;28;20253;-87
2023/08/13 09:54:57;;;;;;;5.20;2.97;;;;;;;;;;5070121;28;20283;-86
2023/08/13 09:57:23;;;;;;;4.17;2.57;;;;;;;;;;5064895;28;20224;-86
2023/08/13 09:59:49;;;;;;;3.20;2.90;;;;;;;;;;5064522;28;20213;-85
2023/08/13 10:02:14;;;;;;;4.25;3.10;;;;;;;;;;5067423;28;20177;-86
2023/08/13 10:04:40;;;;;;;4.43;3.33;;;;;;;;;;5062184;28;20189;-85
2023/08/13 10:07:05;;;;;;;3.33;3.03;;;;;;;;;;5066831;28;20170;-85
2023/08/13 10:09:32;;;;;;;3.92;3.35;;;;;;;;;;5067766;28;20276;-85
2023/08/13 10:11:57;;;;;;;3.60;3.30;;;;;;;;;;5063486;28;20178;-85
2023/08/13 10:14:23;;;;;;;3.97;2.78;;;;;;;;;;5063192;28;20188;-85
2023/08/13 10:16:48;;;;;;;2.83;2.63;;;;;;;;;;5064579;28;20209;-85
2023/08/13 10:19:15;;;;;;;6.25;2.20;;;;;;;;;;5086020;28;20330;-85
2023/08/13 10:21:40;;;;;;;3.28;2.50;;;;;;;;;;5062093;28;20300;-79
2023/08/13 10:24:09;;;;;;;4.70;3.78;;;;;;;;;;5066106;28;20169;-84
2023/08/13 10:26:35;;;;;;;1.90;1.80;;;;;;;;;;5061163;28;20184;-85
2023/08/13 10:29:13;;;;;;;3.80;2.60;;;;;;;;;;5069766;28;20173;-84
2023/08/13 10:31:38;;;;;;;2.60;2.38;;;;;;;;;;5062376;28;20189;-84
2023/08/13 10:34:06;;;;;;;4.35;2.40;;;;;;;;;;5064570;28;20185;-84
2023/08/13 10:36:51;;;;;;;3.13;2.35;;;;;;;;;;5071372;28;20290;-84
2023/08/13 10:39:36;;;;;;;3.13;2.72;;;;;;;;;;5067630;28;20170;-84
2023/08/13 10:42:03;;;;;;;2.42;2.22;;;;;;;;;;5067108;28;20220;-85
2023/08/13 10:44:29;;;;;;;2.90;2.30;;;;;;;;;;5059171;28;20288;-86
2023/08/13 10:46:55;;;;;;;4.40;2.65;;;;;;;;;;5082854;28;20205;-88
2023/08/13 10:49:21;;;;;;;2.60;2.40;;;;;;;;;;5070971;28;20201;-86
2023/08/13 10:51:49;;;;;;;3.40;2.53;;;;;;;;;;5066221;28;20189;-86
2023/08/13 10:54:14;;;;;;;6.40;2.45;;;;;;;;;;5061493;28;20304;-84
2023/08/13 10:56:43;;;;;;;3.53;2.40;;;;;;;;;;5071160;28;20287;-84
2023/08/13 10:59:08;;;;;;;2.65;2.30;;;;;;;;;;5069172;28;20277;-84
2023/08/13 11:01:33;;;;;;;2.47;2.28;;;;;;;;;;5067502;28;20180;-85
2023/08/13 11:04:01;;;;;;;2.85;2.55;;;;;;;;;;5069635;28;20212;-85
2023/08/13 11:06:30;;;;;;;2.63;2.40;;;;;;;;;;5063315;28;20188;-85
2023/08/13 11:08:56;;;;;;;2.63;2.42;;;;;;;;;;5061354;28;20208;-85
2023/08/13 11:11:21;;;;;;;2.45;2.25;;;;;;;;;;5067516;28;20181;-86
2023/08/13 11:13:47;;;;;;;4.57;2.65;;;;;;;;;;5059202;28;20184;-86
2023/08/13 11:16:13;;;;;;;3.28;2.25;;;;;;;;;;5085707;28;20201;-86
2023/08/13 11:18:38;;;;;;;3.10;2.83;;;;;;;;;;5066111;28;20248;-86
2023/08/13 11:21:04;;;;;;;2.53;2.33;;;;;;;;;;5065479;28;20189;-84
2023/08/13 11:23:29;;;;;;;5.35;2.90;;;;;;;;;;5064752;28;20178;-83
2023/08/13 11:25:55;;;;;;;2.95;2.67;;;;;;;;;;5080671;28;20227;-84
2023/08/13 11:28:24;;;;;;;3.63;2.67;;;;;;;;;;5063865;28;20184;-85
2023/08/13 11:30:50;;;;;;;3.30;3.10;;;;;;;;;;5074295;28;20178;-85
2023/08/13 11:33:16;;;;;;;4.40;3.38;;;;;;;;;;5062724;28;20185;-86
2023/08/13 11:35:41;;;;;;;4.30;3.33;;;;;;;;;;5064312;28;20237;-86
2023/08/13 11:38:07;;;;;;;2.95;2.70;;;;;;;;;;5066862;28;20298;-87
2023/08/13 11:40:32;;;;;;;3.08;2.60;;;;;;;;;;5059280;28;20253;-87
2023/08/13 11:42:59;;;;;;;2.80;2.60;;;;;;;;;;5066468;28;20200;-88
2023/08/13 11:45:24;;;;;;;4.50;2.58;;;;;;;;;;5070325;28;20180;-87
2023/08/13 11:47:50;;;;;;;3.00;2.80;;;;;;;;;;5068057;28;20207;-88
2023/08/13 11:50:19;;;;;;;2.75;2.50;;;;;;;;;;5068939;28;20185;-87
2023/08/13 11:53:00;;;;;;;2.88;2.58;;;;;;;;;;5068757;28;20217;-87
2023/08/13 11:55:25;;;;;;;3.90;3.03;;;;;;;;;;5064421;28;20204;-87
2023/08/13 11:57:50;;;;;;;2.80;2.60;;;;;;;;;;5066372;28;20177;-87
2023/08/13 12:00:17;;;;;;;6.28;2.58;;;;;;;;;;5066823;28;20185;-87
2023/08/13 12:02:44;;;;;;;2.38;2.17;;;;;;;;;;5067320;28;20250;-87
2023/08/13 12:05:13;;;;;;;2.40;2.20;;;;;;;;;;5065470;28;20276;-87
2023/08/13 12:07:39;;;;;;;2.33;2.13;;;;;;;;;;5063852;28;20177;-87
2023/08/13 12:10:04;;;;;;;4.13;2.65;;;;;;;;;;5066320;28;20204;-86
2023/08/13 12:12:30;;;;;;;3.15;2.45;;;;;;;;;;5062665;28;20193;-87
2023/08/13 12:14:56;;;;;;;3.47;3.17;;;;;;;;;;5064147;28;20181;-86
2023/08/13 12:17:21;;;;;;;2.70;2.20;;;;;;;;;;5066388;28;20226;-86
2023/08/13 12:19:46;;;;;;;2.65;2.45;;;;;;;;;;5064347;28;20178;-86
2023/08/13 12:22:12;;;;;;;3.33;2.45;;;;;;;;;;5061206;28;20268;-82
2023/08/13 12:24:37;;;;;;;2.88;2.40;;;;;;;;;;5068764;28;20194;-82
2023/08/13 12:27:02;;;;;;;2.40;2.20;;;;;;;;;;5068513;28;20170;-82
2023/08/13 12:29:27;;;;;;;2.20;2.00;;;;;;;;;;5068190;28;20185;-82
2023/08/13 12:31:52;;;;;;;2.58;2.30;;;;;;;;;;5065065;28;20176;-82
2023/08/13 12:34:18;;;;;;;2.30;2.10;;;;;;;;;;5065795;28;20173;-82
2023/08/13 12:36:43;;;;;;;2.00;1.90;;;;;;;;;;5070404;28;20217;-82
2023/08/13 12:39:08;;;;;;;2.17;1.98;;;;;;;;;;5062014;28;20181;-82
2023/08/13 12:41:34;;;;;;;2.40;2.20;;;;;;;;;;5067193;28;20201;-82
2023/08/13 12:43:59;;;;;;;2.40;2.10;;;;;;;;;;5069608;28;20177;-82
2023/08/13 12:46:24;;;;;;;3.50;2.35;;;;;;;;;;5071274;28;20181;-82
2023/08/13 12:48:49;;;;;;;2.05;1.88;;;;;;;;;;5072213;28;20208;-82
2023/08/13 12:51:15;;;;;;;2.13;2.03;;;;;;;;;;5071113;28;20205;-82
2023/08/13 12:53:40;;;;;;;2.30;2.10;;;;;;;;;;5068951;28;20180;-82
2023/08/13 12:56:05;;;;;;;2.00;1.90;;;;;;;;;;5071595;28;20224;-82
2023/08/13 12:58:31;;;;;;;2.53;2.20;;;;;;;;;;5070620;28;20190;-82
2023/08/13 13:00:57;;;;;;;2.13;2.03;;;;;;;;;;5072466;28;20316;-82
2023/08/13 13:03:22;;;;;;;2.97;2.35;;;;;;;;;;5072933;28;20264;-82
2023/08/13 13:05:47;;;;;;;2.58;2.00;;;;;;;;;;5066304;28;20189;-81
2023/08/13 13:08:12;;;;;;;2.38;1.80;;;;;;;;;;5066253;28;20177;-82
2023/08/13 13:10:38;;;;;;;3.08;2.00;;;;;;;;;;5068543;28;20181;-82
2023/08/13 13:13:03;;;;;;;2.67;2.10;;;;;;;;;;5069684;28;20226;-82
2023/08/13 13:15:28;;;;;;;2.30;2.10;;;;;;;;;;5067014;28;20205;-82
2023/08/13 13:17:54;;;;;;;1.98;1.88;;;;;;;;;;5069762;28;20178;-81
2023/08/13 13:20:19;;;;;;;2.17;1.98;;;;;;;;;;5068529;28;20220;-82
2023/08/13 13:22:44;;;;;;;2.55;2.05;;;;;;;;;;5067940;28;20193;-82
2023/08/13 13:25:11;;;;;;;2.70;2.50;;;;;;;;;;5082686;28;20209;-82
2023/08/13 13:27:36;;;;;;;2.25;2.08;;;;;;;;;;5056308;28;20217;-81
2023/08/13 13:30:06;;;;;;;2.60;2.40;;;;;;;;;;5070508;28;20258;-82
2023/08/13 13:32:31;;;;;;;2.92;2.45;;;;;;;;;;5065022;28;20196;-82
2023/08/13 13:34:57;;;;;;;2.38;2.13;;;;;;;;;;5067482;28;20225;-81
2023/08/13 13:37:22;;;;;;;2.10;1.92;;;;;;;;;;5066122;28;20173;-82
2023/08/13 13:39:47;;;;;;;1.90;1.80;;;;;;;;;;5065713;28;20260;-82
2023/08/13 13:42:12;;;;;;;2.20;2.05;;;;;;;;;;5063946;28;20212;-82
2023/08/13 13:44:37;;;;;;;3.20;2.20;;;;;;;;;;5071883;28;20173;-81
2023/08/13 13:47:03;;;;;;;2.15;2.03;;;;;;;;;;5069738;28;20238;-81
2023/08/13 13:49:28;;;;;;;2.28;1.80;;;;;;;;;;5068995;28;20208;-81
2023/08/13 13:51:53;;;;;;;3.33;2.20;;;;;;;;;;5069366;28;20193;-81
2023/08/13 13:54:19;;;;;;;2.35;2.10;;;;;;;;;;5069711;28;20188;-81
2023/08/13 13:56:44;;;;;;;2.95;2.15;;;;;;;;;;5063838;28;20281;-81
2023/08/13 13:59:09;;;;;;;2.70;2.50;;;;;;;;;;5067833;28;20192;-81
2023/08/13 14:01:34;;;;;;;2.63;2.22;;;;;;;;;;5065438;28;20181;-81
2023/08/13 14:03:59;;;;;;;2.08;1.88;;;;;;;;;;5065505;28;20182;-81
2023/08/13 14:06:25;;;;;;;2.25;2.08;;;;;;;;;;5070301;28;20182;-81
2023/08/13 14:08:50;;;;;;;2.38;2.17;;;;;;;;;;5066948;28;20223;-81
2023/08/13 14:11:15;;;;;;;2.30;2.10;;;;;;;;;;5065046;28;20189;-81
2023/08/13 14:13:40;;;;;;;3.42;2.10;;;;;;;;;;5065093;28;20196;-81
2023/08/13 14:16:05;;;;;;;1.95;1.85;;;;;;;;;;5067719;28;20205;-81
2023/08/13 14:18:31;;;;;;;2.10;1.85;;;;;;;;;;5062889;28;20186;-81
2023/08/13 14:20:56;;;;;;;2.20;2.00;;;;;;;;;;5084840;28;20170;-81
2023/08/13 14:23:21;;;;;;;2.17;1.98;;;;;;;;;;5067040;28;20284;-81
2023/08/13 14:25:47;;;;;;;1.90;1.80;;;;;;;;;;5064637;28;20264;-81
2023/08/13 14:28:12;;;;;;;2.08;1.90;;;;;;;;;;5065422;28;20189;-81
2023/08/13 14:30:37;;;;;;;2.13;1.92;;;;;;;;;;5072127;28;20184;-81
2023/08/13 14:33:02;;;;;;;2.28;2.10;;;;;;;;;;5068928;28;20177;-81
2023/08/13 14:35:28;;;;;;;2.20;2.00;;;;;;;;;;5064558;28;20308;-81